This is the latest recevied weather packets stored in our database for station/object K7AEL. If no packets are shown the sender has not sent any weather packets the latest 10 day(s).
| Time | Temp. | Humidity | Pressure | Rain* | Wind** | Luminosity | Snow |
|---|---|---|---|---|---|---|---|
| 1777485176 | 25.56° C | 17% | 1017.1 hPa | 0 mm | - | 247 W/m² | - |
| 1777484872 | 25.56° C | 17% | 1017.5 hPa | 0 mm | - | 267 W/m² | - |
| 1777484570 | 26.11° C | 18% | 1017.2 hPa | 0 mm | - | 271 W/m² | - |
| 1777484266 | 25.56° C | 18% | 1017.6 hPa | 0 mm | - | 454 W/m² | - |
| 1777483962 | 25.56° C | 19% | 1017.6 hPa | 0 mm | - | 253 W/m² | - |
| 1777483659 | 25.56° C | 17% | 1017.6 hPa | 0 mm | - | 319 W/m² | - |
| 1777483354 | 25.56° C | 18% | 1017.6 hPa | 0 mm | - | 424 W/m² | - |
| 1777483050 | 25.56° C | 17% | 1017.5 hPa | 0 mm | - | 332 W/m² | - |
| 1777482747 | 25° C | 18% | 1017.5 hPa | 0 mm | - | 411 W/m² | - |
| 1777482443 | 25° C | 19% | 1017.4 hPa | 0 mm | - | 467 W/m² | - |
| 1777482141 | 25° C | 19% | 1017.4 hPa | 0 mm | - | 415 W/m² | - |
| 1777481838 | 25° C | 20% | 1017.5 hPa | 0 mm | - | 276 W/m² | - |
| 1777481534 | 24.44° C | 20% | 1017.3 hPa | 0 mm | - | 439 W/m² | - |
| 1777481226 | 25° C | 19% | 1017.4 hPa | 0 mm | - | 352 W/m² | - |
| 1777480923 | 25° C | 20% | 1017.3 hPa | 0 mm | - | 286 W/m² | - |
| 1777480619 | 25° C | 20% | 1017.4 hPa | 0 mm | - | 279 W/m² | - |
| 1777480316 | 23.89° C | 20% | 1017.4 hPa | 0 mm | - | 541 W/m² | - |
| 1777480011 | 24.44° C | 20% | 1017.3 hPa | 0 mm | - | 443 W/m² | - |
| 1777479709 | 23.89° C | 21% | 1017.3 hPa | 0 mm | - | 375 W/m² | - |
| 1777479407 | 23.89° C | 21% | 1017.2 hPa | 0 mm | - | 514 W/m² | - |
| 1777479102 | 23.33° C | 22% | 1017.4 hPa | 0 mm | - | 525 W/m² | - |
| 1777478799 | 22.78° C | 22% | 1017.5 hPa | 0 mm | - | 520 W/m² | - |
| 1777478496 | 22.78° C | 23% | 1017.4 hPa | 0 mm | - | 366 W/m² | - |
| 1777478193 | 22.22° C | 22% | 1017.3 hPa | 0 mm | - | 452 W/m² | - |
| 1777477889 | 22.22° C | 23% | 1017.5 hPa | 0 mm | - | 388 W/m² | - |
* Rain latest hour (hover to see other rain measurements)
** Current wind speed in m/s (hover to see current wind gust speed)